TFL75X EHEH-HEGN
Flight info
| Callsign | TFL75X |
|---|---|
| Flight time | 4h 28m |
| Altitude | 33000 |
| Route | VELNI DCT ONUNE DCT GMH DCT NEGIX DCT DINKU M867 XERUM DCT BAVAX DCT RADIZ DCT REKTI DCT NEMEK DCT GACMO/N0447F350 DCT MAVAR DCT BITLA UN132 KEA UL607 PAXIS Y707 OBRAN L321 REXUM M872 BOPOB BOPOB1A |
| Aircraft | B738/M-SDE1FGHIJ1RWXYZ/LB1 |
Departure
| Time | 2026-04-27 06:58 |
|---|---|
| Airport | Eindhoven Airport (EHEH) |
Arrival
| Time | 2026-04-27 11:27 |
|---|---|
| Airport | Hurghada International Airport (HEGN) |
| Time | Latitude | Longitude | Altitude | Speed | Heading |
|---|---|---|---|---|---|
| 2026-04-27 06:09 | 51.45614 | 5.38785 | 74 ft | 0 kts | 125° |
| 2026-04-27 06:47 | 51.45625 | 5.38759 | 60 ft | 4 kts | 125° |
| 2026-04-27 06:47 | 51.45640 | 5.38725 | 66 ft | 2 kts | 125° |
| 2026-04-27 06:47 | 51.45650 | 5.38694 | 63 ft | 4 kts | 92° |
| 2026-04-27 06:47 | 51.45641 | 5.38663 | 63 ft | 4 kts | 34° |
| 2026-04-27 06:48 | 51.45627 | 5.38648 | 70 ft | 0 kts | 35° |
| 2026-04-27 06:50 | 51.45630 | 5.38652 | 69 ft | 2 kts | 35° |
| 2026-04-27 06:51 | 51.45672 | 5.38699 | 68 ft | 13 kts | 35° |
| 2026-04-27 06:51 | 51.45762 | 5.38786 | 74 ft | 16 kts | 5° |
| 2026-04-27 06:51 | 51.45839 | 5.38672 | 69 ft | 15 kts | 304° |
| 2026-04-27 06:51 | 51.45898 | 5.38534 | 70 ft | 15 kts | 304° |
| 2026-04-27 06:52 | 51.45956 | 5.38403 | 70 ft | 14 kts | 310° |
| 2026-04-27 06:52 | 51.45990 | 5.38271 | 69 ft | 13 kts | 240° |
| 2026-04-27 06:52 | 51.45916 | 5.38183 | 74 ft | 13 kts | 214° |
| 2026-04-27 06:52 | 51.45841 | 5.38099 | 72 ft | 14 kts | 215° |
| 2026-04-27 06:53 | 51.45753 | 5.38001 | 69 ft | 16 kts | 215° |
| 2026-04-27 06:53 | 51.45662 | 5.37899 | 68 ft | 16 kts | 214° |
| 2026-04-27 06:53 | 51.45573 | 5.37801 | 70 ft | 15 kts | 214° |
| 2026-04-27 06:53 | 51.45488 | 5.37707 | 68 ft | 15 kts | 215° |
| 2026-04-27 06:54 | 51.45400 | 5.37607 | 74 ft | 17 kts | 215° |
| 2026-04-27 06:54 | 51.45292 | 5.37485 | 66 ft | 21 kts | 215° |
| 2026-04-27 06:54 | 51.45170 | 5.37348 | 69 ft | 23 kts | 215° |
| 2026-04-27 06:54 | 51.45034 | 5.37196 | 71 ft | 25 kts | 215° |
| 2026-04-27 06:55 | 51.44888 | 5.37035 | 69 ft | 25 kts | 214° |
| 2026-04-27 06:55 | 51.44748 | 5.36879 | 73 ft | 24 kts | 214° |
| 2026-04-27 06:55 | 51.44616 | 5.36730 | 74 ft | 23 kts | 215° |
| 2026-04-27 06:55 | 51.44489 | 5.36587 | 69 ft | 22 kts | 215° |
| 2026-04-27 06:56 | 51.44365 | 5.36448 | 68 ft | 21 kts | 215° |
| 2026-04-27 06:56 | 51.44244 | 5.36312 | 70 ft | 21 kts | 215° |
| 2026-04-27 06:56 | 51.44143 | 5.36199 | 69 ft | 17 kts | 215° |
| 2026-04-27 06:56 | 51.44049 | 5.36095 | 71 ft | 16 kts | 214° |
| 2026-04-27 06:57 | 51.43962 | 5.36130 | 73 ft | 1 kts | 126° |
| 2026-04-27 06:57 | 51.43962 | 5.36132 | 73 ft | 1 kts | 126° |
| 2026-04-27 06:57 | 51.43942 | 5.36186 | 69 ft | 10 kts | 115° |
| 2026-04-27 06:57 | 51.43966 | 5.36280 | 65 ft | 10 kts | 40° |
| 2026-04-27 06:58 | 51.44051 | 5.36373 | 66 ft | 37 kts | 35° |
| 2026-04-27 06:58 | 51.45271 | 5.37738 | 112 ft | 164 kts | 35° |
| 2026-04-27 06:58 | 51.46237 | 5.38816 | 771 ft | 171 kts | 36° |
| 2026-04-27 06:59 | 51.47199 | 5.39867 | 1802 ft | 165 kts | 36° |
| 2026-04-27 06:59 | 51.48201 | 5.40984 | 2289 ft | 190 kts | 36° |
| 2026-04-27 06:59 | 51.49306 | 5.42259 | 2684 ft | 203 kts | 36° |
| 2026-04-27 06:59 | 51.50508 | 5.43638 | 2980 ft | 218 kts | 41° |
| 2026-04-27 07:00 | 51.51353 | 5.45640 | 3437 ft | 221 kts | 75° |
| 2026-04-27 07:00 | 51.51381 | 5.48098 | 3998 ft | 224 kts | 101° |
| 2026-04-27 07:00 | 51.50942 | 5.50539 | 4497 ft | 232 kts | 107° |
| 2026-04-27 07:00 | 51.50426 | 5.53013 | 5093 ft | 236 kts | 108° |
| 2026-04-27 07:01 | 51.49900 | 5.55531 | 5790 ft | 238 kts | 108° |
| 2026-04-27 07:01 | 51.49382 | 5.58078 | 6412 ft | 244 kts | 105° |
| 2026-04-27 07:01 | 51.48966 | 5.60852 | 6646 ft | 267 kts | 102° |
| 2026-04-27 07:01 | 51.48577 | 5.63824 | 7145 ft | 276 kts | 101° |
| 2026-04-27 07:02 | 51.48416 | 5.66908 | 7749 ft | 281 kts | 84° |
| 2026-04-27 07:02 | 51.48663 | 5.70037 | 8439 ft | 284 kts | 81° |
| 2026-04-27 07:02 | 51.48942 | 5.73209 | 9072 ft | 290 kts | 81° |
| 2026-04-27 07:02 | 51.49224 | 5.76418 | 9812 ft | 292 kts | 81° |
| 2026-04-27 07:03 | 51.49504 | 5.79683 | 10443 ft | 297 kts | 81° |
| 2026-04-27 07:03 | 51.49787 | 5.83047 | 10748 ft | 315 kts | 82° |
| 2026-04-27 07:03 | 51.50081 | 5.86651 | 10914 ft | 336 kts | 82° |
| 2026-04-27 07:03 | 51.50389 | 5.90477 | 11084 ft | 355 kts | 82° |
| 2026-04-27 07:04 | 51.50707 | 5.94485 | 11456 ft | 366 kts | 82° |
| 2026-04-27 07:04 | 51.51028 | 5.98566 | 12064 ft | 370 kts | 82° |
| 2026-04-27 07:04 | 51.51351 | 6.02675 | 12733 ft | 373 kts | 82° |
| 2026-04-27 07:04 | 51.51676 | 6.06828 | 13343 ft | 378 kts | 82° |
| 2026-04-27 07:05 | 51.52003 | 6.11032 | 13953 ft | 381 kts | 82° |
| 2026-04-27 07:05 | 51.52330 | 6.15276 | 14522 ft | 385 kts | 82° |
| 2026-04-27 07:05 | 51.52632 | 6.19577 | 15056 ft | 390 kts | 86° |
| 2026-04-27 07:05 | 51.52361 | 6.23919 | 15558 ft | 395 kts | 101° |
| 2026-04-27 07:06 | 51.51796 | 6.28252 | 16105 ft | 398 kts | 102° |
| 2026-04-27 07:06 | 51.51210 | 6.32621 | 16622 ft | 403 kts | 102° |
| 2026-04-27 07:06 | 51.50621 | 6.37036 | 17128 ft | 407 kts | 102° |
| 2026-04-27 07:06 | 51.50035 | 6.41495 | 17648 ft | 410 kts | 102° |
| 2026-04-27 07:07 | 51.49452 | 6.45993 | 18162 ft | 414 kts | 102° |
| 2026-04-27 07:07 | 51.48869 | 6.50536 | 18652 ft | 418 kts | 102° |
| 2026-04-27 07:07 | 51.48283 | 6.55120 | 19084 ft | 421 kts | 102° |
| 2026-04-27 07:07 | 51.47702 | 6.59668 | 19534 ft | 423 kts | 102° |
| 2026-04-27 07:08 | 51.47101 | 6.64361 | 19993 ft | 426 kts | 102° |
| 2026-04-27 07:08 | 51.46501 | 6.69029 | 20424 ft | 429 kts | 102° |
| 2026-04-27 07:08 | 51.45895 | 6.73732 | 20856 ft | 432 kts | 102° |
| 2026-04-27 07:08 | 51.45283 | 6.78460 | 21257 ft | 435 kts | 102° |
| 2026-04-27 07:09 | 51.44666 | 6.83211 | 21668 ft | 438 kts | 102° |
| 2026-04-27 07:09 | 51.44050 | 6.87941 | 22064 ft | 441 kts | 102° |
| 2026-04-27 07:09 | 51.43419 | 6.92762 | 22465 ft | 444 kts | 102° |
| 2026-04-27 07:09 | 51.42782 | 6.97621 | 22849 ft | 447 kts | 102° |
| 2026-04-27 07:10 | 51.42138 | 7.02506 | 23240 ft | 450 kts | 102° |
| 2026-04-27 07:10 | 51.41487 | 7.07436 | 23614 ft | 453 kts | 102° |
| 2026-04-27 07:10 | 51.40832 | 7.12380 | 23968 ft | 456 kts | 102° |
| 2026-04-27 07:10 | 51.40170 | 7.17357 | 24296 ft | 458 kts | 102° |
| 2026-04-27 07:11 | 51.39503 | 7.22356 | 24621 ft | 460 kts | 102° |
| 2026-04-27 07:11 | 51.38830 | 7.27386 | 24929 ft | 463 kts | 102° |
| 2026-04-27 07:11 | 51.38153 | 7.32425 | 25238 ft | 465 kts | 102° |
| 2026-04-27 07:11 | 51.37447 | 7.37482 | 25533 ft | 467 kts | 105° |
| 2026-04-27 07:12 | 51.36383 | 7.42400 | 25814 ft | 469 kts | 114° |
| 2026-04-27 07:12 | 51.34861 | 7.47013 | 26092 ft | 470 kts | 124° |
| 2026-04-27 07:12 | 51.33045 | 7.51354 | 26401 ft | 471 kts | 126° |
| 2026-04-27 07:12 | 51.31191 | 7.55674 | 26694 ft | 472 kts | 126° |
| 2026-04-27 07:13 | 51.29328 | 7.60025 | 26963 ft | 475 kts | 126° |
| 2026-04-27 07:13 | 51.27475 | 7.64404 | 27225 ft | 477 kts | 125° |
| 2026-04-27 07:13 | 51.25628 | 7.68813 | 27497 ft | 479 kts | 125° |
| 2026-04-27 07:13 | 51.23781 | 7.73245 | 27760 ft | 481 kts | 125° |
| 2026-04-27 07:14 | 51.21923 | 7.77702 | 28013 ft | 483 kts | 125° |
| 2026-04-27 07:14 | 51.20052 | 7.82166 | 28258 ft | 485 kts | 126° |
| 2026-04-27 07:14 | 51.17956 | 7.86362 | 28482 ft | 485 kts | 136° |
| 2026-04-27 07:14 | 51.15477 | 7.89981 | 28759 ft | 483 kts | 144° |
| 2026-04-27 07:15 | 51.12722 | 7.92993 | 29100 ft | 479 kts | 154° |
| 2026-04-27 07:15 | 51.09778 | 7.95430 | 29468 ft | 476 kts | 156° |
| 2026-04-27 07:15 | 51.06813 | 7.97792 | 29804 ft | 476 kts | 156° |
| 2026-04-27 07:15 | 51.03852 | 8.00139 | 30088 ft | 476 kts | 156° |
| 2026-04-27 07:16 | 51.00891 | 8.02501 | 30396 ft | 476 kts | 156° |
| 2026-04-27 07:16 | 50.97935 | 8.04878 | 30672 ft | 476 kts | 156° |
| 2026-04-27 07:16 | 50.94987 | 8.07265 | 30928 ft | 476 kts | 155° |
| 2026-04-27 07:16 | 50.92038 | 8.09661 | 31146 ft | 476 kts | 155° |
| 2026-04-27 07:17 | 50.89097 | 8.12051 | 31393 ft | 476 kts | 155° |
| 2026-04-27 07:17 | 50.86148 | 8.14447 | 31657 ft | 475 kts | 155° |
| 2026-04-27 07:17 | 50.83205 | 8.16834 | 31909 ft | 475 kts | 155° |
| 2026-04-27 07:17 | 50.80268 | 8.19212 | 32139 ft | 475 kts | 155° |
| 2026-04-27 07:18 | 50.77324 | 8.21591 | 32367 ft | 475 kts | 155° |
| 2026-04-27 07:18 | 50.74381 | 8.23965 | 32632 ft | 474 kts | 155° |
| 2026-04-27 07:18 | 50.71447 | 8.26329 | 32893 ft | 473 kts | 155° |
| 2026-04-27 07:18 | 50.68514 | 8.28688 | 33114 ft | 473 kts | 155° |
| 2026-04-27 07:19 | 50.65580 | 8.31045 | 33267 ft | 474 kts | 155° |
| 2026-04-27 07:19 | 50.59676 | 8.35776 | 33270 ft | 476 kts | 155° |
| 2026-04-27 07:20 | 50.53800 | 8.40475 | 33265 ft | 472 kts | 155° |
| 2026-04-27 07:20 | 50.47961 | 8.45130 | 33269 ft | 470 kts | 155° |
| 2026-04-27 07:21 | 50.42142 | 8.49757 | 33266 ft | 468 kts | 155° |
| 2026-04-27 07:21 | 50.36654 | 8.55125 | 33267 ft | 471 kts | 140° |
| 2026-04-27 07:22 | 50.32085 | 8.62489 | 33278 ft | 472 kts | 133° |
| 2026-04-27 07:22 | 50.27643 | 8.70092 | 33276 ft | 474 kts | 133° |
| 2026-04-27 07:23 | 50.23154 | 8.77678 | 33282 ft | 476 kts | 133° |
| 2026-04-27 07:23 | 50.18588 | 8.85292 | 33279 ft | 478 kts | 134° |
| 2026-04-27 07:24 | 50.14048 | 8.92814 | 33274 ft | 480 kts | 134° |
| 2026-04-27 07:24 | 50.09458 | 9.00396 | 33267 ft | 481 kts | 134° |
| 2026-04-27 07:25 | 50.04857 | 9.07977 | 33256 ft | 482 kts | 134° |
| 2026-04-27 07:25 | 50.00256 | 9.15537 | 33238 ft | 481 kts | 134° |
| 2026-04-27 07:26 | 49.95654 | 9.23076 | 33247 ft | 480 kts | 134° |
| 2026-04-27 07:26 | 49.91065 | 9.30572 | 33246 ft | 479 kts | 134° |
| 2026-04-27 07:27 | 49.86479 | 9.38041 | 33238 ft | 477 kts | 134° |
| 2026-04-27 07:27 | 49.81903 | 9.45472 | 33239 ft | 476 kts | 134° |
| 2026-04-27 07:28 | 49.77339 | 9.52861 | 33243 ft | 474 kts | 134° |
| 2026-04-27 07:28 | 49.72776 | 9.60228 | 33236 ft | 474 kts | 134° |
| 2026-04-27 07:29 | 49.68212 | 9.67574 | 33246 ft | 474 kts | 134° |
| 2026-04-27 07:29 | 49.64384 | 9.73720 | 33235 ft | 474 kts | 134° |
| 2026-04-27 07:30 | 49.59809 | 9.81046 | 33240 ft | 474 kts | 134° |
| 2026-04-27 07:30 | 49.55251 | 9.88322 | 33243 ft | 475 kts | 134° |
| 2026-04-27 07:31 | 49.50654 | 9.95641 | 33246 ft | 476 kts | 134° |
| 2026-04-27 07:31 | 49.46018 | 10.03001 | 33233 ft | 476 kts | 134° |
| 2026-04-27 07:32 | 49.41426 | 10.10270 | 33245 ft | 477 kts | 134° |
| 2026-04-27 07:32 | 49.36796 | 10.17578 | 33235 ft | 478 kts | 134° |
| 2026-04-27 07:33 | 49.32159 | 10.24879 | 33259 ft | 478 kts | 134° |
| 2026-04-27 07:33 | 49.27513 | 10.32174 | 33265 ft | 478 kts | 134° |
| 2026-04-27 07:34 | 49.22691 | 10.39171 | 33253 ft | 478 kts | 144° |
| 2026-04-27 07:34 | 49.17054 | 10.44469 | 33251 ft | 476 kts | 151° |
| 2026-04-27 07:35 | 49.11323 | 10.49539 | 33266 ft | 476 kts | 150° |
| 2026-04-27 07:35 | 49.05620 | 10.54663 | 33262 ft | 476 kts | 150° |
| 2026-04-27 07:36 | 48.99934 | 10.59818 | 33268 ft | 475 kts | 150° |
| 2026-04-27 07:36 | 48.94253 | 10.64960 | 33256 ft | 475 kts | 150° |
| 2026-04-27 07:37 | 48.88574 | 10.70082 | 33265 ft | 475 kts | 150° |
| 2026-04-27 07:37 | 48.82897 | 10.75221 | 33247 ft | 475 kts | 147° |
| 2026-04-27 07:38 | 48.77940 | 10.81795 | 33254 ft | 474 kts | 131° |
| 2026-04-27 07:38 | 48.73569 | 10.89281 | 33229 ft | 474 kts | 131° |
| 2026-04-27 07:39 | 48.69192 | 10.96753 | 33242 ft | 474 kts | 131° |
| 2026-04-27 07:39 | 48.64782 | 11.04161 | 33243 ft | 474 kts | 132° |
| 2026-04-27 07:40 | 48.60357 | 11.11533 | 33228 ft | 474 kts | 132° |
| 2026-04-27 07:40 | 48.55924 | 11.18892 | 33245 ft | 473 kts | 132° |
| 2026-04-27 07:41 | 48.51491 | 11.26235 | 33240 ft | 474 kts | 132° |
| 2026-04-27 07:41 | 48.47050 | 11.33573 | 33233 ft | 474 kts | 132° |
| 2026-04-27 07:42 | 48.42601 | 11.40905 | 33219 ft | 474 kts | 132° |
| 2026-04-27 07:42 | 48.38179 | 11.48171 | 33232 ft | 474 kts | 132° |
| 2026-04-27 07:43 | 48.33722 | 11.55477 | 33231 ft | 474 kts | 132° |
| 2026-04-27 07:43 | 48.29262 | 11.62769 | 33233 ft | 474 kts | 132° |
| 2026-04-27 07:44 | 48.24721 | 11.69943 | 33230 ft | 474 kts | 136° |
| 2026-04-27 07:44 | 48.19869 | 11.76636 | 33226 ft | 474 kts | 138° |
| 2026-04-27 07:45 | 48.14964 | 11.83227 | 33236 ft | 474 kts | 137° |
| 2026-04-27 07:45 | 48.10076 | 11.89852 | 33224 ft | 474 kts | 137° |
| 2026-04-27 07:46 | 48.05204 | 11.96491 | 33234 ft | 474 kts | 137° |
| 2026-04-27 07:46 | 48.00334 | 12.03126 | 33232 ft | 474 kts | 137° |
| 2026-04-27 07:47 | 47.95454 | 12.09753 | 33232 ft | 474 kts | 137° |
| 2026-04-27 07:47 | 47.90568 | 12.16367 | 33224 ft | 474 kts | 137° |
| 2026-04-27 07:48 | 47.85684 | 12.22961 | 33213 ft | 474 kts | 137° |
| 2026-04-27 07:48 | 47.80792 | 12.29548 | 33223 ft | 474 kts | 137° |
| 2026-04-27 07:49 | 47.75898 | 12.36121 | 33239 ft | 474 kts | 137° |
| 2026-04-27 07:49 | 47.70999 | 12.42684 | 33237 ft | 474 kts | 137° |
| 2026-04-27 07:50 | 47.66095 | 12.49239 | 33221 ft | 474 kts | 137° |
| 2026-04-27 07:50 | 47.61190 | 12.55778 | 33214 ft | 475 kts | 137° |
| 2026-04-27 07:51 | 47.56283 | 12.62333 | 33222 ft | 475 kts | 137° |
| 2026-04-27 07:51 | 47.51382 | 12.68878 | 33209 ft | 475 kts | 136° |
| 2026-04-27 07:52 | 47.46467 | 12.75422 | 33180 ft | 475 kts | 136° |
| 2026-04-27 07:52 | 47.41572 | 12.81922 | 33195 ft | 473 kts | 136° |
| 2026-04-27 07:53 | 47.36676 | 12.88403 | 33199 ft | 473 kts | 136° |
| 2026-04-27 07:53 | 47.31770 | 12.94882 | 33178 ft | 474 kts | 136° |
| 2026-04-27 07:54 | 47.26865 | 13.01343 | 33208 ft | 473 kts | 136° |
| 2026-04-27 07:54 | 47.21943 | 13.07809 | 33178 ft | 474 kts | 136° |
| 2026-04-27 07:55 | 47.17019 | 13.14262 | 33172 ft | 475 kts | 136° |
| 2026-04-27 07:55 | 47.12089 | 13.20705 | 33190 ft | 475 kts | 136° |
| 2026-04-27 07:56 | 47.07139 | 13.27159 | 33303 ft | 478 kts | 136° |
| 2026-04-27 07:56 | 47.04680 | 13.30359 | 33404 ft | 480 kts | 136° |
| 2026-04-27 07:56 | 47.02179 | 13.33609 | 33593 ft | 481 kts | 136° |
| 2026-04-27 07:56 | 46.99677 | 13.36855 | 33863 ft | 479 kts | 136° |
| 2026-04-27 07:57 | 46.97189 | 13.40078 | 34083 ft | 478 kts | 136° |
| 2026-04-27 07:57 | 46.94699 | 13.43301 | 34321 ft | 477 kts | 137° |
| 2026-04-27 07:57 | 46.92212 | 13.46515 | 34489 ft | 477 kts | 137° |
| 2026-04-27 07:57 | 46.89723 | 13.49729 | 34641 ft | 478 kts | 137° |
| 2026-04-27 07:58 | 46.87233 | 13.52940 | 34855 ft | 476 kts | 137° |
| 2026-04-27 07:58 | 46.84754 | 13.56132 | 35070 ft | 475 kts | 137° |
| 2026-04-27 07:58 | 46.82275 | 13.59320 | 35166 ft | 475 kts | 137° |
| 2026-04-27 07:59 | 46.77306 | 13.65700 | 35199 ft | 477 kts | 137° |
| 2026-04-27 07:59 | 46.69823 | 13.75274 | 35209 ft | 477 kts | 137° |
| 2026-04-27 08:00 | 46.64842 | 13.81629 | 35219 ft | 476 kts | 137° |
| 2026-04-27 08:00 | 46.59861 | 13.87970 | 35224 ft | 476 kts | 137° |
| 2026-04-27 08:01 | 46.55003 | 13.94460 | 35231 ft | 475 kts | 134° |
| 2026-04-27 08:01 | 46.50306 | 14.01202 | 35236 ft | 475 kts | 134° |
| 2026-04-27 08:02 | 46.45616 | 14.07947 | 35231 ft | 474 kts | 134° |
| 2026-04-27 08:02 | 46.40911 | 14.14634 | 35232 ft | 474 kts | 134° |
| 2026-04-27 08:03 | 46.36189 | 14.21294 | 35235 ft | 473 kts | 135° |
| 2026-04-27 08:03 | 46.31471 | 14.27923 | 35239 ft | 472 kts | 135° |
| 2026-04-27 08:04 | 46.26756 | 14.34534 | 35231 ft | 472 kts | 135° |
| 2026-04-27 08:04 | 46.22052 | 14.41114 | 35240 ft | 471 kts | 135° |
| 2026-04-27 08:05 | 46.17345 | 14.47683 | 35245 ft | 470 kts | 135° |
| 2026-04-27 08:05 | 46.12637 | 14.54236 | 35238 ft | 470 kts | 135° |
| 2026-04-27 08:06 | 46.07928 | 14.60775 | 35241 ft | 470 kts | 135° |
| 2026-04-27 08:06 | 46.03217 | 14.67299 | 35240 ft | 470 kts | 135° |
| 2026-04-27 08:07 | 45.98532 | 14.73773 | 35248 ft | 470 kts | 135° |
| 2026-04-27 08:07 | 45.93805 | 14.80288 | 35241 ft | 471 kts | 135° |
| 2026-04-27 08:08 | 45.89072 | 14.86795 | 35243 ft | 471 kts | 135° |
| 2026-04-27 08:08 | 45.84333 | 14.93293 | 35240 ft | 472 kts | 136° |
| 2026-04-27 08:09 | 45.79587 | 14.99786 | 35244 ft | 472 kts | 136° |
| 2026-04-27 08:09 | 45.74830 | 15.06279 | 35244 ft | 472 kts | 136° |
| 2026-04-27 08:10 | 45.70063 | 15.12768 | 35245 ft | 473 kts | 136° |
| 2026-04-27 08:10 | 45.65295 | 15.19243 | 35239 ft | 473 kts | 136° |
| 2026-04-27 08:11 | 45.60527 | 15.25706 | 35251 ft | 472 kts | 136° |
| 2026-04-27 08:11 | 45.55768 | 15.32177 | 35248 ft | 472 kts | 135° |
| 2026-04-27 08:12 | 45.51109 | 15.38782 | 35246 ft | 472 kts | 135° |
| 2026-04-27 08:12 | 45.46480 | 15.45407 | 35252 ft | 471 kts | 135° |
| 2026-04-27 08:13 | 45.41842 | 15.52006 | 35244 ft | 471 kts | 135° |
| 2026-04-27 08:13 | 45.37196 | 15.58573 | 35250 ft | 470 kts | 135° |
| 2026-04-27 08:14 | 45.32547 | 15.65119 | 35254 ft | 470 kts | 135° |
| 2026-04-27 08:14 | 45.27902 | 15.71642 | 35253 ft | 470 kts | 135° |
| 2026-04-27 08:15 | 45.24036 | 15.77060 | 35244 ft | 469 kts | 136° |
| 2026-04-27 08:15 | 45.18637 | 15.84610 | 35253 ft | 469 kts | 136° |
| 2026-04-27 08:16 | 45.13986 | 15.91096 | 35246 ft | 469 kts | 136° |
| 2026-04-27 08:16 | 45.09332 | 15.97571 | 35245 ft | 469 kts | 136° |
| 2026-04-27 08:17 | 45.05428 | 16.02992 | 35245 ft | 469 kts | 136° |
| 2026-04-27 08:17 | 45.00793 | 16.09411 | 35236 ft | 469 kts | 136° |
| 2026-04-27 08:18 | 44.96129 | 16.15857 | 35240 ft | 469 kts | 136° |
| 2026-04-27 08:18 | 44.91459 | 16.22294 | 35225 ft | 469 kts | 136° |
| 2026-04-27 08:19 | 44.86786 | 16.28721 | 35230 ft | 469 kts | 137° |
| 2026-04-27 08:19 | 44.82112 | 16.35133 | 35222 ft | 469 kts | 137° |
| 2026-04-27 08:20 | 44.77430 | 16.41541 | 35221 ft | 469 kts | 137° |
| 2026-04-27 08:20 | 44.72749 | 16.47933 | 35218 ft | 469 kts | 137° |
| 2026-04-27 08:21 | 44.68066 | 16.54312 | 35218 ft | 469 kts | 137° |
| 2026-04-27 08:21 | 44.63378 | 16.60683 | 35206 ft | 469 kts | 137° |
| 2026-04-27 08:22 | 44.58686 | 16.67044 | 35209 ft | 469 kts | 137° |
| 2026-04-27 08:22 | 44.53992 | 16.73392 | 35206 ft | 469 kts | 138° |
| 2026-04-27 08:23 | 44.49323 | 16.79693 | 35205 ft | 469 kts | 138° |
| 2026-04-27 08:23 | 44.44583 | 16.86072 | 35197 ft | 470 kts | 138° |
| 2026-04-27 08:24 | 44.39894 | 16.92371 | 35199 ft | 471 kts | 138° |
| 2026-04-27 08:24 | 44.35169 | 16.98701 | 35190 ft | 471 kts | 138° |
| 2026-04-27 08:25 | 44.30434 | 17.05030 | 35194 ft | 471 kts | 139° |
| 2026-04-27 08:25 | 44.25699 | 17.11345 | 35192 ft | 471 kts | 139° |
| 2026-04-27 08:26 | 44.20959 | 17.17650 | 35192 ft | 471 kts | 139° |
| 2026-04-27 08:26 | 44.16219 | 17.23943 | 35192 ft | 471 kts | 139° |
| 2026-04-27 08:27 | 44.11474 | 17.30225 | 35180 ft | 471 kts | 139° |
| 2026-04-27 08:27 | 44.06734 | 17.36488 | 35185 ft | 469 kts | 139° |
| 2026-04-27 08:28 | 44.02001 | 17.42727 | 35190 ft | 468 kts | 139° |
| 2026-04-27 08:28 | 43.97272 | 17.48945 | 35204 ft | 468 kts | 139° |
| 2026-04-27 08:29 | 43.92543 | 17.55150 | 35204 ft | 468 kts | 139° |
| 2026-04-27 08:29 | 43.87805 | 17.61352 | 35200 ft | 469 kts | 139° |
| 2026-04-27 08:30 | 43.83062 | 17.67546 | 35202 ft | 468 kts | 139° |
| 2026-04-27 08:30 | 43.78316 | 17.73730 | 35203 ft | 469 kts | 139° |
| 2026-04-27 08:31 | 43.73568 | 17.79903 | 35206 ft | 469 kts | 139° |
| 2026-04-27 08:31 | 43.68818 | 17.86064 | 35212 ft | 468 kts | 139° |
| 2026-04-27 08:32 | 43.64071 | 17.92207 | 35208 ft | 467 kts | 139° |
| 2026-04-27 08:32 | 43.59323 | 17.98338 | 35201 ft | 467 kts | 139° |
| 2026-04-27 08:33 | 43.54582 | 18.04445 | 35201 ft | 466 kts | 139° |
| 2026-04-27 08:33 | 43.49839 | 18.10542 | 35199 ft | 466 kts | 139° |
| 2026-04-27 08:34 | 43.45135 | 18.16575 | 35192 ft | 465 kts | 139° |
| 2026-04-27 08:34 | 43.40393 | 18.22643 | 35192 ft | 466 kts | 139° |
| 2026-04-27 08:35 | 43.35649 | 18.28701 | 35201 ft | 465 kts | 139° |
| 2026-04-27 08:35 | 43.30906 | 18.34743 | 35195 ft | 465 kts | 139° |
| 2026-04-27 08:36 | 43.26152 | 18.40786 | 35201 ft | 465 kts | 139° |
| 2026-04-27 08:36 | 43.21401 | 18.46814 | 35196 ft | 466 kts | 139° |
| 2026-04-27 08:37 | 43.16657 | 18.52820 | 35205 ft | 466 kts | 139° |
| 2026-04-27 08:37 | 43.11934 | 18.58890 | 35186 ft | 466 kts | 137° |
| 2026-04-27 08:38 | 43.07379 | 18.65208 | 35203 ft | 466 kts | 135° |
| 2026-04-27 08:38 | 43.02858 | 18.71556 | 35172 ft | 466 kts | 136° |
| 2026-04-27 08:39 | 42.98315 | 18.77865 | 35190 ft | 465 kts | 136° |
| 2026-04-27 08:39 | 42.93760 | 18.84134 | 35181 ft | 465 kts | 136° |
| 2026-04-27 08:40 | 42.89198 | 18.90386 | 35179 ft | 465 kts | 136° |
| 2026-04-27 08:40 | 42.84637 | 18.96625 | 35179 ft | 465 kts | 136° |
| 2026-04-27 08:41 | 42.80072 | 19.02855 | 35166 ft | 465 kts | 136° |
| 2026-04-27 08:41 | 42.75499 | 19.09085 | 35162 ft | 465 kts | 136° |
| 2026-04-27 08:42 | 42.70922 | 19.15306 | 35183 ft | 465 kts | 136° |
| 2026-04-27 08:42 | 42.66335 | 19.21526 | 35157 ft | 466 kts | 136° |
| 2026-04-27 08:43 | 42.61740 | 19.27744 | 35168 ft | 467 kts | 136° |
| 2026-04-27 08:43 | 42.57133 | 19.33965 | 35158 ft | 467 kts | 136° |
| 2026-04-27 08:44 | 42.52519 | 19.40182 | 35163 ft | 468 kts | 136° |
| 2026-04-27 08:44 | 42.47898 | 19.46394 | 35157 ft | 468 kts | 136° |
| 2026-04-27 08:45 | 42.43275 | 19.52595 | 35153 ft | 468 kts | 137° |
| 2026-04-27 08:45 | 42.38642 | 19.58796 | 35153 ft | 468 kts | 137° |
| 2026-04-27 08:46 | 42.34038 | 19.64944 | 35184 ft | 467 kts | 137° |
| 2026-04-27 08:46 | 42.29407 | 19.71115 | 35175 ft | 467 kts | 137° |
| 2026-04-27 08:47 | 42.24746 | 19.77313 | 35177 ft | 467 kts | 137° |
| 2026-04-27 08:47 | 42.20142 | 19.83422 | 35184 ft | 468 kts | 137° |
| 2026-04-27 08:48 | 42.15497 | 19.89570 | 35171 ft | 468 kts | 137° |
| 2026-04-27 08:48 | 42.10812 | 19.95759 | 35186 ft | 468 kts | 137° |
| 2026-04-27 08:49 | 42.06190 | 20.01852 | 35178 ft | 468 kts | 137° |
| 2026-04-27 08:49 | 42.01534 | 20.07977 | 35185 ft | 468 kts | 137° |
| 2026-04-27 08:50 | 41.96875 | 20.14091 | 35175 ft | 468 kts | 137° |
| 2026-04-27 08:50 | 41.92222 | 20.20185 | 35188 ft | 467 kts | 137° |
| 2026-04-27 08:51 | 41.87574 | 20.26259 | 35183 ft | 467 kts | 137° |
| 2026-04-27 08:51 | 41.82917 | 20.32333 | 35176 ft | 467 kts | 137° |
| 2026-04-27 08:52 | 41.78258 | 20.38398 | 35189 ft | 467 kts | 138° |
| 2026-04-27 08:52 | 41.73594 | 20.44455 | 35191 ft | 467 kts | 138° |
| 2026-04-27 08:53 | 41.68922 | 20.50511 | 35184 ft | 468 kts | 138° |
| 2026-04-27 08:53 | 41.64090 | 20.56307 | 35187 ft | 466 kts | 143° |
| 2026-04-27 08:54 | 41.58986 | 20.61634 | 35181 ft | 465 kts | 144° |
| 2026-04-27 08:54 | 41.53865 | 20.66912 | 35178 ft | 466 kts | 144° |
| 2026-04-27 08:55 | 41.48761 | 20.72239 | 35192 ft | 466 kts | 144° |
| 2026-04-27 08:55 | 41.43669 | 20.77586 | 35194 ft | 466 kts | 144° |
| 2026-04-27 08:56 | 41.38572 | 20.82935 | 35197 ft | 466 kts | 144° |
| 2026-04-27 08:56 | 41.33506 | 20.88240 | 35209 ft | 467 kts | 144° |
| 2026-04-27 08:57 | 41.25797 | 20.96287 | 35201 ft | 467 kts | 144° |
| 2026-04-27 08:58 | 41.20713 | 21.01578 | 35204 ft | 467 kts | 144° |
| 2026-04-27 08:58 | 41.15595 | 21.06897 | 35200 ft | 467 kts | 144° |
| 2026-04-27 08:59 | 41.10479 | 21.12202 | 35187 ft | 466 kts | 144° |
| 2026-04-27 08:59 | 41.05369 | 21.17490 | 35207 ft | 465 kts | 144° |
| 2026-04-27 09:00 | 41.00268 | 21.22758 | 35192 ft | 465 kts | 144° |
| 2026-04-27 09:00 | 40.95176 | 21.28006 | 35204 ft | 465 kts | 144° |
| 2026-04-27 09:01 | 40.90071 | 21.33258 | 35194 ft | 465 kts | 144° |
| 2026-04-27 09:01 | 40.84885 | 21.38357 | 35200 ft | 465 kts | 146° |
| 2026-04-27 09:02 | 40.79644 | 21.43379 | 35200 ft | 465 kts | 146° |
| 2026-04-27 09:02 | 40.74411 | 21.48401 | 35207 ft | 465 kts | 146° |
| 2026-04-27 09:03 | 40.69184 | 21.53436 | 35206 ft | 465 kts | 146° |
| 2026-04-27 09:03 | 40.63958 | 21.58472 | 35193 ft | 465 kts | 146° |
| 2026-04-27 09:04 | 40.59619 | 21.62647 | 35206 ft | 465 kts | 146° |
| 2026-04-27 09:04 | 40.54398 | 21.67660 | 35206 ft | 464 kts | 146° |
| 2026-04-27 09:05 | 40.49184 | 21.72657 | 35224 ft | 463 kts | 146° |
| 2026-04-27 09:05 | 40.43127 | 21.78447 | 35220 ft | 463 kts | 146° |
| 2026-04-27 09:06 | 40.38767 | 21.82609 | 35241 ft | 462 kts | 146° |
| 2026-04-27 09:06 | 40.33567 | 21.87562 | 35240 ft | 462 kts | 146° |
| 2026-04-27 09:07 | 40.28370 | 21.92503 | 35230 ft | 462 kts | 146° |
| 2026-04-27 09:07 | 40.23202 | 21.97406 | 35242 ft | 462 kts | 146° |
| 2026-04-27 09:08 | 40.17995 | 22.02337 | 35230 ft | 462 kts | 146° |
| 2026-04-27 09:08 | 40.12747 | 22.07298 | 35212 ft | 463 kts | 146° |
| 2026-04-27 09:09 | 40.07560 | 22.12191 | 35203 ft | 463 kts | 147° |
| 2026-04-27 09:09 | 40.02293 | 22.17150 | 35195 ft | 464 kts | 147° |
| 2026-04-27 09:10 | 39.97054 | 22.22073 | 35200 ft | 464 kts | 147° |
| 2026-04-27 09:10 | 39.91808 | 22.26993 | 35206 ft | 465 kts | 147° |
| 2026-04-27 09:11 | 39.86550 | 22.31916 | 35193 ft | 466 kts | 147° |
| 2026-04-27 09:11 | 39.81285 | 22.36835 | 35193 ft | 465 kts | 147° |
| 2026-04-27 09:12 | 39.76060 | 22.41707 | 35211 ft | 465 kts | 147° |
| 2026-04-27 09:12 | 39.70760 | 22.46640 | 35213 ft | 466 kts | 147° |
| 2026-04-27 09:13 | 39.65526 | 22.51502 | 35213 ft | 466 kts | 147° |
| 2026-04-27 09:13 | 39.60255 | 22.56389 | 35214 ft | 466 kts | 147° |
| 2026-04-27 09:14 | 39.54984 | 22.61267 | 35212 ft | 466 kts | 147° |
| 2026-04-27 09:14 | 39.49710 | 22.66139 | 35214 ft | 466 kts | 147° |
| 2026-04-27 09:15 | 39.44860 | 22.70610 | 35212 ft | 466 kts | 147° |
| 2026-04-27 09:15 | 39.39580 | 22.75469 | 35211 ft | 466 kts | 147° |
| 2026-04-27 09:16 | 39.34301 | 22.80318 | 35219 ft | 465 kts | 147° |
| 2026-04-27 09:16 | 39.29020 | 22.85160 | 35206 ft | 466 kts | 147° |
| 2026-04-27 09:17 | 39.23738 | 22.89993 | 35208 ft | 465 kts | 147° |
| 2026-04-27 09:17 | 39.21987 | 22.91594 | 35211 ft | 465 kts | 147° |
| 2026-04-27 09:18 | 39.17873 | 22.95350 | 35213 ft | 465 kts | 147° |
| 2026-04-27 09:18 | 39.12595 | 23.00160 | 35210 ft | 464 kts | 147° |
| 2026-04-27 09:19 | 39.07323 | 23.04956 | 35213 ft | 464 kts | 147° |
| 2026-04-27 09:19 | 39.02052 | 23.09743 | 35207 ft | 463 kts | 147° |
| 2026-04-27 09:20 | 38.96788 | 23.14514 | 35211 ft | 463 kts | 147° |
| 2026-04-27 09:20 | 38.91512 | 23.19287 | 35205 ft | 463 kts | 147° |
| 2026-04-27 09:21 | 38.86241 | 23.24047 | 35201 ft | 464 kts | 147° |
| 2026-04-27 09:21 | 38.80962 | 23.28805 | 35186 ft | 464 kts | 147° |
| 2026-04-27 09:22 | 38.75678 | 23.33558 | 35197 ft | 464 kts | 147° |
| 2026-04-27 09:22 | 38.70390 | 23.38307 | 35189 ft | 464 kts | 147° |
| 2026-04-27 09:23 | 38.65097 | 23.43051 | 35172 ft | 464 kts | 147° |
| 2026-04-27 09:23 | 38.59809 | 23.47783 | 35175 ft | 464 kts | 147° |
| 2026-04-27 09:24 | 38.54522 | 23.52505 | 35170 ft | 463 kts | 147° |
| 2026-04-27 09:24 | 38.49275 | 23.57183 | 35167 ft | 463 kts | 147° |
| 2026-04-27 09:25 | 38.43994 | 23.61881 | 35163 ft | 463 kts | 147° |
| 2026-04-27 09:25 | 38.38717 | 23.66568 | 35158 ft | 463 kts | 147° |
| 2026-04-27 09:26 | 38.33430 | 23.71256 | 35144 ft | 462 kts | 147° |
| 2026-04-27 09:26 | 38.28148 | 23.75930 | 35146 ft | 462 kts | 147° |
| 2026-04-27 09:27 | 38.22861 | 23.80601 | 35141 ft | 463 kts | 147° |
| 2026-04-27 09:27 | 38.17570 | 23.85266 | 35146 ft | 463 kts | 147° |
| 2026-04-27 09:28 | 38.12277 | 23.89926 | 35150 ft | 463 kts | 147° |
| 2026-04-27 09:28 | 38.06978 | 23.94582 | 35160 ft | 463 kts | 147° |
| 2026-04-27 09:29 | 38.01669 | 23.99238 | 35158 ft | 464 kts | 147° |
| 2026-04-27 09:29 | 37.96365 | 24.03882 | 35155 ft | 464 kts | 147° |
| 2026-04-27 09:30 | 37.91050 | 24.08527 | 35155 ft | 464 kts | 147° |
| 2026-04-27 09:30 | 37.85742 | 24.13157 | 35151 ft | 464 kts | 147° |
| 2026-04-27 09:31 | 37.80421 | 24.17791 | 35143 ft | 464 kts | 147° |
| 2026-04-27 09:31 | 37.75105 | 24.22412 | 35134 ft | 464 kts | 147° |
| 2026-04-27 09:32 | 37.69781 | 24.27031 | 35123 ft | 464 kts | 147° |
| 2026-04-27 09:32 | 37.64451 | 24.31648 | 35125 ft | 465 kts | 147° |
| 2026-04-27 09:33 | 37.59108 | 24.36268 | 35115 ft | 466 kts | 147° |
| 2026-04-27 09:33 | 37.53759 | 24.40885 | 35114 ft | 466 kts | 147° |
| 2026-04-27 09:34 | 37.48401 | 24.45502 | 35119 ft | 467 kts | 147° |
| 2026-04-27 09:34 | 37.43040 | 24.50113 | 35113 ft | 467 kts | 147° |
| 2026-04-27 09:35 | 37.37670 | 24.54723 | 35115 ft | 467 kts | 147° |
| 2026-04-27 09:35 | 37.32295 | 24.59329 | 35115 ft | 468 kts | 148° |
| 2026-04-27 09:36 | 37.26916 | 24.63931 | 35114 ft | 468 kts | 148° |
| 2026-04-27 09:36 | 37.21529 | 24.68531 | 35115 ft | 468 kts | 148° |
| 2026-04-27 09:37 | 37.16138 | 24.73127 | 35111 ft | 469 kts | 148° |
| 2026-04-27 09:37 | 37.10743 | 24.77719 | 35107 ft | 469 kts | 148° |
| 2026-04-27 09:38 | 37.05342 | 24.82307 | 35106 ft | 469 kts | 148° |
| 2026-04-27 09:38 | 36.99970 | 24.86863 | 35105 ft | 470 kts | 148° |
| 2026-04-27 09:39 | 36.94525 | 24.91473 | 35102 ft | 470 kts | 148° |
| 2026-04-27 09:39 | 36.89105 | 24.96053 | 35102 ft | 470 kts | 148° |
| 2026-04-27 09:40 | 36.83723 | 25.00593 | 35105 ft | 470 kts | 148° |
| 2026-04-27 09:40 | 36.78300 | 25.05161 | 35100 ft | 470 kts | 148° |
| 2026-04-27 09:41 | 36.72874 | 25.09722 | 35100 ft | 471 kts | 148° |
| 2026-04-27 09:41 | 36.67439 | 25.14283 | 35101 ft | 471 kts | 148° |
| 2026-04-27 09:42 | 36.61996 | 25.18843 | 35093 ft | 471 kts | 148° |
| 2026-04-27 09:42 | 36.56553 | 25.23396 | 35098 ft | 472 kts | 148° |
| 2026-04-27 09:43 | 36.51104 | 25.27945 | 35099 ft | 472 kts | 148° |
| 2026-04-27 09:43 | 36.45654 | 25.32488 | 35100 ft | 472 kts | 148° |
| 2026-04-27 09:44 | 36.40236 | 25.36995 | 35097 ft | 472 kts | 148° |
| 2026-04-27 09:44 | 36.34775 | 25.41531 | 35108 ft | 473 kts | 148° |
| 2026-04-27 09:45 | 36.29304 | 25.46068 | 35099 ft | 473 kts | 149° |
| 2026-04-27 09:45 | 36.23837 | 25.50593 | 35098 ft | 473 kts | 149° |
| 2026-04-27 09:46 | 36.18363 | 25.55117 | 35096 ft | 473 kts | 149° |
| 2026-04-27 09:46 | 36.12890 | 25.59632 | 35092 ft | 473 kts | 149° |
| 2026-04-27 09:47 | 36.07398 | 25.64154 | 35091 ft | 474 kts | 149° |
| 2026-04-27 09:47 | 36.01904 | 25.68670 | 35086 ft | 476 kts | 149° |
| 2026-04-27 09:48 | 35.96390 | 25.73196 | 35087 ft | 477 kts | 149° |
| 2026-04-27 09:48 | 35.90864 | 25.77724 | 35085 ft | 477 kts | 149° |
| 2026-04-27 09:49 | 35.85324 | 25.82255 | 35088 ft | 478 kts | 149° |
| 2026-04-27 09:49 | 35.79782 | 25.86780 | 35087 ft | 478 kts | 149° |
| 2026-04-27 09:50 | 35.75172 | 25.90539 | 35087 ft | 478 kts | 149° |
| 2026-04-27 09:50 | 35.69629 | 25.95051 | 35092 ft | 478 kts | 149° |
| 2026-04-27 09:51 | 35.64087 | 25.99555 | 35085 ft | 477 kts | 149° |
| 2026-04-27 09:51 | 35.58549 | 26.04048 | 35087 ft | 477 kts | 149° |
| 2026-04-27 09:52 | 35.53009 | 26.08535 | 35084 ft | 477 kts | 149° |
| 2026-04-27 09:52 | 35.47475 | 26.13009 | 35088 ft | 476 kts | 149° |
| 2026-04-27 09:53 | 35.41944 | 26.17473 | 35086 ft | 476 kts | 149° |
| 2026-04-27 09:53 | 35.36428 | 26.21918 | 35084 ft | 476 kts | 149° |
| 2026-04-27 09:54 | 35.30899 | 26.26366 | 35085 ft | 475 kts | 149° |
| 2026-04-27 09:54 | 35.25368 | 26.30808 | 35082 ft | 475 kts | 149° |
| 2026-04-27 09:55 | 35.19852 | 26.35231 | 35078 ft | 475 kts | 149° |
| 2026-04-27 09:55 | 35.11554 | 26.41871 | 35070 ft | 475 kts | 149° |
| 2026-04-27 09:56 | 35.06022 | 26.46289 | 35069 ft | 475 kts | 149° |
| 2026-04-27 09:56 | 35.00487 | 26.50701 | 35067 ft | 475 kts | 149° |
| 2026-04-27 09:57 | 34.94988 | 26.55078 | 35064 ft | 475 kts | 149° |
| 2026-04-27 09:57 | 34.89454 | 26.59475 | 35062 ft | 475 kts | 149° |
| 2026-04-27 09:58 | 34.83912 | 26.63872 | 35064 ft | 475 kts | 149° |
| 2026-04-27 09:58 | 34.78373 | 26.68259 | 35060 ft | 475 kts | 149° |
| 2026-04-27 09:59 | 34.72829 | 26.72643 | 35063 ft | 475 kts | 149° |
| 2026-04-27 09:59 | 34.67285 | 26.77019 | 35064 ft | 475 kts | 149° |
| 2026-04-27 10:00 | 34.61739 | 26.81391 | 35058 ft | 475 kts | 149° |
| 2026-04-27 10:00 | 34.56190 | 26.85757 | 35063 ft | 475 kts | 149° |
| 2026-04-27 10:01 | 34.50641 | 26.90117 | 35059 ft | 475 kts | 150° |
| 2026-04-27 10:01 | 34.45087 | 26.94474 | 35052 ft | 476 kts | 150° |
| 2026-04-27 10:02 | 34.39531 | 26.98824 | 35057 ft | 476 kts | 150° |
| 2026-04-27 10:02 | 34.33974 | 27.03170 | 35065 ft | 476 kts | 150° |
| 2026-04-27 10:03 | 34.28410 | 27.07513 | 35053 ft | 476 kts | 150° |
| 2026-04-27 10:03 | 34.22861 | 27.11838 | 35054 ft | 476 kts | 150° |
| 2026-04-27 10:04 | 34.17289 | 27.16174 | 35050 ft | 476 kts | 150° |
| 2026-04-27 10:04 | 34.11718 | 27.20502 | 35052 ft | 476 kts | 150° |
| 2026-04-27 10:05 | 34.06147 | 27.24825 | 35064 ft | 477 kts | 150° |
| 2026-04-27 10:05 | 34.00567 | 27.29147 | 35054 ft | 477 kts | 150° |
| 2026-04-27 10:06 | 33.94963 | 27.33423 | 35049 ft | 476 kts | 154° |
| 2026-04-27 10:06 | 33.88980 | 27.36763 | 35047 ft | 473 kts | 160° |
| 2026-04-27 10:07 | 33.82928 | 27.39882 | 35059 ft | 473 kts | 160° |
| 2026-04-27 10:07 | 33.76918 | 27.43004 | 35046 ft | 474 kts | 159° |
| 2026-04-27 10:08 | 33.70878 | 27.46183 | 35046 ft | 474 kts | 159° |
| 2026-04-27 10:08 | 33.64842 | 27.49372 | 35056 ft | 474 kts | 159° |
| 2026-04-27 10:09 | 33.58805 | 27.52559 | 35059 ft | 474 kts | 159° |
| 2026-04-27 10:09 | 33.52765 | 27.55741 | 35055 ft | 474 kts | 159° |
| 2026-04-27 10:10 | 33.46724 | 27.58917 | 35056 ft | 474 kts | 159° |
| 2026-04-27 10:10 | 33.40680 | 27.62089 | 35056 ft | 474 kts | 159° |
| 2026-04-27 10:11 | 33.34631 | 27.65260 | 35056 ft | 475 kts | 159° |
| 2026-04-27 10:11 | 33.28581 | 27.68426 | 35048 ft | 475 kts | 159° |
| 2026-04-27 10:12 | 33.22527 | 27.71589 | 35048 ft | 475 kts | 160° |
| 2026-04-27 10:12 | 33.16467 | 27.74751 | 35052 ft | 475 kts | 160° |
| 2026-04-27 10:13 | 33.10406 | 27.77909 | 35058 ft | 476 kts | 160° |
| 2026-04-27 10:13 | 33.04334 | 27.81067 | 35054 ft | 476 kts | 160° |
| 2026-04-27 10:14 | 32.98262 | 27.84221 | 35054 ft | 476 kts | 160° |
| 2026-04-27 10:14 | 32.92182 | 27.87374 | 35058 ft | 477 kts | 160° |
| 2026-04-27 10:15 | 32.86098 | 27.90525 | 35051 ft | 477 kts | 160° |
| 2026-04-27 10:15 | 32.80011 | 27.93672 | 35049 ft | 477 kts | 160° |
| 2026-04-27 10:16 | 32.73925 | 27.96814 | 35054 ft | 477 kts | 160° |
| 2026-04-27 10:16 | 32.67835 | 27.99954 | 35049 ft | 477 kts | 160° |
| 2026-04-27 10:17 | 32.61747 | 28.03087 | 35049 ft | 477 kts | 160° |
| 2026-04-27 10:17 | 32.55653 | 28.06220 | 35052 ft | 477 kts | 160° |
| 2026-04-27 10:18 | 32.49603 | 28.09325 | 35047 ft | 477 kts | 160° |
| 2026-04-27 10:18 | 32.43506 | 28.12449 | 35047 ft | 477 kts | 160° |
| 2026-04-27 10:19 | 32.37414 | 28.15567 | 35046 ft | 477 kts | 161° |
| 2026-04-27 10:19 | 32.31318 | 28.18681 | 35051 ft | 477 kts | 161° |
| 2026-04-27 10:20 | 32.25218 | 28.21794 | 35048 ft | 477 kts | 161° |
| 2026-04-27 10:20 | 32.19140 | 28.24890 | 35048 ft | 477 kts | 161° |
| 2026-04-27 10:21 | 32.13039 | 28.27994 | 35055 ft | 478 kts | 161° |
| 2026-04-27 10:21 | 32.06935 | 28.31095 | 35048 ft | 478 kts | 161° |
| 2026-04-27 10:22 | 32.00825 | 28.34194 | 35049 ft | 478 kts | 161° |
| 2026-04-27 10:22 | 31.94714 | 28.37290 | 35046 ft | 478 kts | 161° |
| 2026-04-27 10:23 | 31.88604 | 28.40382 | 35050 ft | 478 kts | 161° |
| 2026-04-27 10:23 | 31.82486 | 28.43464 | 35046 ft | 478 kts | 162° |
| 2026-04-27 10:24 | 31.76360 | 28.46528 | 35051 ft | 478 kts | 162° |
| 2026-04-27 10:24 | 31.70233 | 28.49588 | 35051 ft | 479 kts | 162° |
| 2026-04-27 10:25 | 31.64103 | 28.52650 | 35051 ft | 479 kts | 162° |
| 2026-04-27 10:25 | 31.58009 | 28.55688 | 35048 ft | 479 kts | 162° |
| 2026-04-27 10:26 | 31.51889 | 28.58733 | 35051 ft | 479 kts | 162° |
| 2026-04-27 10:26 | 31.45756 | 28.61782 | 35054 ft | 479 kts | 162° |
| 2026-04-27 10:27 | 31.39622 | 28.64828 | 35053 ft | 479 kts | 162° |
| 2026-04-27 10:27 | 31.33490 | 28.67868 | 35055 ft | 479 kts | 162° |
| 2026-04-27 10:28 | 31.27357 | 28.70906 | 35056 ft | 479 kts | 163° |
| 2026-04-27 10:28 | 31.21226 | 28.73937 | 35056 ft | 478 kts | 163° |
| 2026-04-27 10:29 | 31.15101 | 28.76961 | 35049 ft | 478 kts | 163° |
| 2026-04-27 10:29 | 31.08974 | 28.79983 | 35054 ft | 478 kts | 163° |
| 2026-04-27 10:30 | 31.02850 | 28.82998 | 35048 ft | 477 kts | 163° |
| 2026-04-27 10:30 | 30.96733 | 28.86006 | 35056 ft | 477 kts | 163° |
| 2026-04-27 10:31 | 30.90614 | 28.89010 | 35042 ft | 477 kts | 163° |
| 2026-04-27 10:31 | 30.84496 | 28.92010 | 35046 ft | 477 kts | 163° |
| 2026-04-27 10:32 | 30.78380 | 28.95005 | 35047 ft | 477 kts | 164° |
| 2026-04-27 10:32 | 30.72264 | 28.97996 | 35043 ft | 477 kts | 164° |
| 2026-04-27 10:33 | 30.66148 | 29.00983 | 35045 ft | 477 kts | 164° |
| 2026-04-27 10:33 | 30.60028 | 29.03968 | 35040 ft | 477 kts | 164° |
| 2026-04-27 10:34 | 30.53953 | 29.06928 | 35039 ft | 477 kts | 164° |
| 2026-04-27 10:34 | 30.48186 | 29.10966 | 35037 ft | 493 kts | 146° |
| 2026-04-27 10:35 | 30.43372 | 29.16751 | 35041 ft | 501 kts | 137° |
| 2026-04-27 10:35 | 30.38629 | 29.22646 | 35037 ft | 499 kts | 140° |
| 2026-04-27 10:36 | 30.33752 | 29.28374 | 35030 ft | 499 kts | 140° |
| 2026-04-27 10:36 | 30.28889 | 29.34121 | 35033 ft | 500 kts | 140° |
| 2026-04-27 10:37 | 30.24047 | 29.39908 | 35030 ft | 501 kts | 140° |
| 2026-04-27 10:37 | 30.19204 | 29.45702 | 35026 ft | 501 kts | 140° |
| 2026-04-27 10:38 | 30.14358 | 29.51485 | 35027 ft | 501 kts | 140° |
| 2026-04-27 10:38 | 30.10326 | 29.56283 | 35024 ft | 500 kts | 138° |
| 2026-04-27 10:39 | 30.05548 | 29.61965 | 35013 ft | 487 kts | 137° |
| 2026-04-27 10:39 | 30.00060 | 29.68481 | 35030 ft | 488 kts | 137° |
| 2026-04-27 10:40 | 29.96093 | 29.73181 | 35028 ft | 489 kts | 137° |
| 2026-04-27 10:40 | 29.91335 | 29.78810 | 35024 ft | 491 kts | 137° |
| 2026-04-27 10:41 | 29.86559 | 29.84455 | 35026 ft | 492 kts | 137° |
| 2026-04-27 10:41 | 29.81770 | 29.90108 | 35022 ft | 494 kts | 137° |
| 2026-04-27 10:42 | 29.76970 | 29.95764 | 35020 ft | 495 kts | 138° |
| 2026-04-27 10:42 | 29.72156 | 30.01430 | 35020 ft | 495 kts | 138° |
| 2026-04-27 10:43 | 29.67338 | 30.07092 | 35019 ft | 496 kts | 138° |
| 2026-04-27 10:43 | 29.62543 | 30.12718 | 35014 ft | 496 kts | 138° |
| 2026-04-27 10:44 | 29.57686 | 30.18409 | 35015 ft | 495 kts | 138° |
| 2026-04-27 10:44 | 29.52895 | 30.24015 | 35014 ft | 495 kts | 138° |
| 2026-04-27 10:45 | 29.48068 | 30.29655 | 35012 ft | 495 kts | 139° |
| 2026-04-27 10:45 | 29.43240 | 30.35289 | 35010 ft | 495 kts | 139° |
| 2026-04-27 10:46 | 29.38416 | 30.40920 | 35010 ft | 495 kts | 138° |
| 2026-04-27 10:46 | 29.33640 | 30.46602 | 35009 ft | 495 kts | 138° |
| 2026-04-27 10:47 | 29.28873 | 30.52305 | 35014 ft | 495 kts | 138° |
| 2026-04-27 10:47 | 29.24103 | 30.57993 | 35010 ft | 495 kts | 138° |
| 2026-04-27 10:48 | 29.19322 | 30.63673 | 35011 ft | 496 kts | 139° |
| 2026-04-27 10:48 | 29.14533 | 30.69352 | 35013 ft | 496 kts | 139° |
| 2026-04-27 10:49 | 29.09738 | 30.75031 | 35015 ft | 497 kts | 139° |
| 2026-04-27 10:49 | 29.04933 | 30.80714 | 35018 ft | 497 kts | 139° |
| 2026-04-27 10:50 | 29.00121 | 30.86399 | 35005 ft | 498 kts | 139° |
| 2026-04-27 10:50 | 28.95299 | 30.92086 | 35022 ft | 499 kts | 139° |
| 2026-04-27 10:51 | 28.90467 | 30.97776 | 35021 ft | 500 kts | 139° |
| 2026-04-27 10:51 | 28.85624 | 31.03472 | 35023 ft | 500 kts | 139° |
| 2026-04-27 10:52 | 28.80767 | 31.09177 | 35011 ft | 501 kts | 140° |
| 2026-04-27 10:52 | 28.75903 | 31.14883 | 35016 ft | 502 kts | 140° |
| 2026-04-27 10:53 | 28.68646 | 31.23407 | 35013 ft | 503 kts | 139° |
| 2026-04-27 10:54 | 28.63937 | 31.29305 | 35003 ft | 500 kts | 137° |
| 2026-04-27 10:54 | 28.59338 | 31.35194 | 35004 ft | 496 kts | 137° |
| 2026-04-27 10:55 | 28.54737 | 31.41028 | 35003 ft | 491 kts | 138° |
| 2026-04-27 10:55 | 28.52487 | 31.43871 | 34985 ft | 477 kts | 138° |
| 2026-04-27 10:55 | 28.50297 | 31.46631 | 34982 ft | 462 kts | 139° |
| 2026-04-27 10:56 | 28.46039 | 31.51971 | 35018 ft | 458 kts | 139° |
| 2026-04-27 10:56 | 28.41703 | 31.57376 | 35038 ft | 468 kts | 139° |
| 2026-04-27 10:57 | 28.37272 | 31.62907 | 35035 ft | 479 kts | 139° |
| 2026-04-27 10:57 | 28.32752 | 31.68556 | 35024 ft | 488 kts | 139° |
| 2026-04-27 10:58 | 28.28137 | 31.74319 | 35022 ft | 498 kts | 139° |
| 2026-04-27 10:58 | 28.23437 | 31.80179 | 35012 ft | 505 kts | 139° |
| 2026-04-27 10:59 | 28.18702 | 31.86079 | 35005 ft | 507 kts | 139° |
| 2026-04-27 10:59 | 28.16328 | 31.89033 | 34790 ft | 507 kts | 139° |
| 2026-04-27 10:59 | 28.13960 | 31.91978 | 34458 ft | 502 kts | 139° |
| 2026-04-27 11:00 | 28.09293 | 31.97776 | 33610 ft | 495 kts | 138° |
| 2026-04-27 11:00 | 28.06978 | 32.00645 | 33173 ft | 491 kts | 138° |
| 2026-04-27 11:00 | 28.04685 | 32.03495 | 32745 ft | 488 kts | 136° |
| 2026-04-27 11:00 | 28.02596 | 32.06525 | 32362 ft | 489 kts | 127° |
| 2026-04-27 11:01 | 28.00933 | 32.09796 | 32174 ft | 483 kts | 122° |
| 2026-04-27 11:01 | 27.99329 | 32.13178 | 31739 ft | 481 kts | 122° |
| 2026-04-27 11:01 | 27.97771 | 32.16506 | 31353 ft | 477 kts | 121° |
| 2026-04-27 11:01 | 27.96222 | 32.19807 | 30969 ft | 473 kts | 121° |
| 2026-04-27 11:02 | 27.94673 | 32.23076 | 30581 ft | 470 kts | 122° |
| 2026-04-27 11:02 | 27.93123 | 32.26321 | 30190 ft | 467 kts | 122° |
| 2026-04-27 11:02 | 27.91578 | 32.29533 | 29746 ft | 464 kts | 122° |
| 2026-04-27 11:02 | 27.90058 | 32.32682 | 29302 ft | 460 kts | 122° |
| 2026-04-27 11:03 | 27.88527 | 32.35846 | 28878 ft | 456 kts | 122° |
| 2026-04-27 11:03 | 27.87012 | 32.38973 | 28478 ft | 452 kts | 122° |
| 2026-04-27 11:03 | 27.85508 | 32.42077 | 28056 ft | 448 kts | 122° |
| 2026-04-27 11:03 | 27.84017 | 32.45150 | 27658 ft | 445 kts | 122° |
| 2026-04-27 11:04 | 27.82534 | 32.48204 | 27259 ft | 441 kts | 122° |
| 2026-04-27 11:04 | 27.81063 | 32.51235 | 26870 ft | 438 kts | 122° |
| 2026-04-27 11:04 | 27.79749 | 32.53940 | 26518 ft | 436 kts | 122° |
| 2026-04-27 11:04 | 27.78296 | 32.56929 | 26131 ft | 433 kts | 122° |
| 2026-04-27 11:05 | 27.77321 | 32.58931 | 25875 ft | 432 kts | 122° |
| 2026-04-27 11:05 | 27.75881 | 32.61890 | 25488 ft | 430 kts | 122° |
| 2026-04-27 11:05 | 27.74909 | 32.63886 | 25219 ft | 428 kts | 122° |
| 2026-04-27 11:05 | 27.73439 | 32.66902 | 24833 ft | 426 kts | 122° |
| 2026-04-27 11:06 | 27.72017 | 32.69819 | 24450 ft | 424 kts | 121° |
| 2026-04-27 11:06 | 27.70594 | 32.72734 | 24053 ft | 423 kts | 121° |
| 2026-04-27 11:06 | 27.69179 | 32.75632 | 23658 ft | 421 kts | 121° |
| 2026-04-27 11:06 | 27.67766 | 32.78524 | 23228 ft | 420 kts | 121° |
| 2026-04-27 11:07 | 27.66362 | 32.81395 | 22809 ft | 417 kts | 121° |
| 2026-04-27 11:07 | 27.64966 | 32.84249 | 22410 ft | 414 kts | 121° |
| 2026-04-27 11:07 | 27.63578 | 32.87085 | 22023 ft | 412 kts | 121° |
| 2026-04-27 11:07 | 27.62199 | 32.89900 | 21642 ft | 409 kts | 121° |
| 2026-04-27 11:08 | 27.60830 | 32.92693 | 21272 ft | 406 kts | 121° |
| 2026-04-27 11:08 | 27.59467 | 32.95470 | 20897 ft | 403 kts | 121° |
| 2026-04-27 11:08 | 27.58114 | 32.98229 | 20528 ft | 401 kts | 121° |
| 2026-04-27 11:08 | 27.56766 | 33.00972 | 20151 ft | 399 kts | 121° |
| 2026-04-27 11:09 | 27.55425 | 33.03700 | 19769 ft | 397 kts | 121° |
| 2026-04-27 11:09 | 27.54090 | 33.06415 | 19411 ft | 395 kts | 121° |
| 2026-04-27 11:09 | 27.52759 | 33.09120 | 19038 ft | 393 kts | 121° |
| 2026-04-27 11:09 | 27.51433 | 33.11812 | 18664 ft | 393 kts | 121° |
| 2026-04-27 11:10 | 27.50110 | 33.14497 | 18276 ft | 392 kts | 121° |
| 2026-04-27 11:10 | 27.48790 | 33.17175 | 17888 ft | 390 kts | 121° |
| 2026-04-27 11:10 | 27.47479 | 33.19833 | 17485 ft | 387 kts | 121° |
| 2026-04-27 11:10 | 27.46175 | 33.22475 | 17112 ft | 385 kts | 121° |
| 2026-04-27 11:11 | 27.44880 | 33.25095 | 16747 ft | 382 kts | 121° |
| 2026-04-27 11:11 | 27.43591 | 33.27704 | 16383 ft | 380 kts | 121° |
| 2026-04-27 11:11 | 27.42310 | 33.30295 | 16024 ft | 378 kts | 121° |
| 2026-04-27 11:11 | 27.41038 | 33.32868 | 15668 ft | 376 kts | 121° |
| 2026-04-27 11:12 | 27.39777 | 33.35413 | 15312 ft | 374 kts | 122° |
| 2026-04-27 11:12 | 27.38527 | 33.37970 | 14961 ft | 372 kts | 118° |
| 2026-04-27 11:12 | 27.37755 | 33.40743 | 14599 ft | 373 kts | 98° |
| 2026-04-27 11:12 | 27.37432 | 33.43624 | 14248 ft | 371 kts | 96° |
| 2026-04-27 11:13 | 27.37137 | 33.46505 | 13893 ft | 370 kts | 97° |
| 2026-04-27 11:13 | 27.36823 | 33.49374 | 13496 ft | 370 kts | 97° |
| 2026-04-27 11:13 | 27.36487 | 33.52235 | 13135 ft | 368 kts | 98° |
| 2026-04-27 11:13 | 27.36142 | 33.55077 | 12777 ft | 365 kts | 99° |
| 2026-04-27 11:14 | 27.35384 | 33.57765 | 12411 ft | 359 kts | 122° |
| 2026-04-27 11:14 | 27.33851 | 33.59911 | 12089 ft | 347 kts | 144° |
| 2026-04-27 11:14 | 27.31898 | 33.61345 | 11762 ft | 334 kts | 163° |
| 2026-04-27 11:14 | 27.29726 | 33.62135 | 11454 ft | 325 kts | 172° |
| 2026-04-27 11:15 | 27.27543 | 33.62754 | 11117 ft | 323 kts | 173° |
| 2026-04-27 11:15 | 27.25369 | 33.63357 | 10790 ft | 321 kts | 172° |
| 2026-04-27 11:15 | 27.23208 | 33.63976 | 10466 ft | 320 kts | 172° |
| 2026-04-27 11:15 | 27.21064 | 33.64606 | 10249 ft | 315 kts | 171° |
| 2026-04-27 11:16 | 27.18973 | 33.65228 | 10096 ft | 307 kts | 171° |
| 2026-04-27 11:16 | 27.16935 | 33.65835 | 9979 ft | 299 kts | 171° |
| 2026-04-27 11:16 | 27.14931 | 33.66430 | 9705 ft | 297 kts | 171° |
| 2026-04-27 11:16 | 27.12940 | 33.67019 | 9397 ft | 295 kts | 171° |
| 2026-04-27 11:17 | 27.10960 | 33.67604 | 9104 ft | 293 kts | 171° |
| 2026-04-27 11:17 | 27.08993 | 33.68186 | 8810 ft | 292 kts | 171° |
| 2026-04-27 11:17 | 27.07034 | 33.68766 | 8518 ft | 290 kts | 171° |
| 2026-04-27 11:17 | 27.05086 | 33.69342 | 8227 ft | 289 kts | 171° |
| 2026-04-27 11:18 | 27.03148 | 33.69915 | 7935 ft | 287 kts | 170° |
| 2026-04-27 11:18 | 27.01216 | 33.70487 | 7637 ft | 287 kts | 170° |
| 2026-04-27 11:18 | 26.99289 | 33.71056 | 7348 ft | 286 kts | 170° |
| 2026-04-27 11:18 | 26.97370 | 33.71624 | 7065 ft | 285 kts | 170° |
| 2026-04-27 11:19 | 26.95454 | 33.72190 | 6786 ft | 284 kts | 169° |
| 2026-04-27 11:19 | 26.93549 | 33.72752 | 6513 ft | 284 kts | 169° |
| 2026-04-27 11:19 | 26.91698 | 33.73545 | 6199 ft | 290 kts | 148° |
| 2026-04-27 11:19 | 26.90342 | 33.75191 | 6025 ft | 288 kts | 119° |
| 2026-04-27 11:20 | 26.89655 | 33.77265 | 5906 ft | 281 kts | 104° |
| 2026-04-27 11:20 | 26.89178 | 33.79350 | 5797 ft | 272 kts | 103° |
| 2026-04-27 11:20 | 26.88723 | 33.81371 | 5658 ft | 263 kts | 104° |
| 2026-04-27 11:20 | 26.88554 | 33.83355 | 5561 ft | 251 kts | 76° |
| 2026-04-27 11:21 | 26.89203 | 33.85086 | 5492 ft | 237 kts | 46° |
| 2026-04-27 11:21 | 26.90422 | 33.86279 | 5267 ft | 235 kts | 21° |
| 2026-04-27 11:21 | 26.91974 | 33.86766 | 4933 ft | 232 kts | 352° |
| 2026-04-27 11:21 | 26.93505 | 33.86343 | 4641 ft | 226 kts | 338° |
| 2026-04-27 11:22 | 26.95026 | 33.85849 | 4295 ft | 224 kts | 340° |
| 2026-04-27 11:22 | 26.96506 | 33.85409 | 4014 ft | 216 kts | 340° |
| 2026-04-27 11:22 | 26.97932 | 33.84990 | 3732 ft | 207 kts | 340° |
| 2026-04-27 11:22 | 26.99290 | 33.84591 | 3445 ft | 197 kts | 340° |
| 2026-04-27 11:23 | 27.00571 | 33.84213 | 3185 ft | 184 kts | 340° |
| 2026-04-27 11:23 | 27.01770 | 33.83858 | 2954 ft | 172 kts | 341° |
| 2026-04-27 11:23 | 27.02909 | 33.83521 | 2742 ft | 167 kts | 340° |
| 2026-04-27 11:23 | 27.04016 | 33.83194 | 2518 ft | 162 kts | 340° |
| 2026-04-27 11:24 | 27.05098 | 33.82874 | 2314 ft | 160 kts | 341° |
| 2026-04-27 11:24 | 27.06169 | 33.82557 | 2114 ft | 158 kts | 341° |
| 2026-04-27 11:24 | 27.07238 | 33.82240 | 1886 ft | 159 kts | 340° |
| 2026-04-27 11:24 | 27.08294 | 33.81930 | 1675 ft | 154 kts | 341° |
| 2026-04-27 11:25 | 27.09286 | 33.81638 | 1500 ft | 141 kts | 341° |
| 2026-04-27 11:25 | 27.10216 | 33.81361 | 1300 ft | 134 kts | 342° |
| 2026-04-27 11:25 | 27.11095 | 33.81102 | 1139 ft | 128 kts | 342° |
| 2026-04-27 11:25 | 27.11982 | 33.80838 | 982 ft | 133 kts | 343° |
| 2026-04-27 11:26 | 27.12898 | 33.80568 | 751 ft | 138 kts | 346° |
| 2026-04-27 11:26 | 27.13809 | 33.80300 | 611 ft | 138 kts | 347° |
| 2026-04-27 11:26 | 27.14745 | 33.80026 | 422 ft | 140 kts | 345° |
| 2026-04-27 11:26 | 27.15699 | 33.79749 | 244 ft | 142 kts | 345° |
| 2026-04-27 11:27 | 27.16634 | 33.79467 | 115 ft | 134 kts | 347° |
| 2026-04-27 11:27 | 27.17440 | 33.79232 | 99 ft | 92 kts | 345° |
| 2026-04-27 11:27 | 27.17677 | 33.79161 | 97 ft | 31 kts | 349° |
| 2026-04-27 11:27 | 27.17934 | 33.79187 | 98 ft | 14 kts | 22° |
| 2026-04-27 11:28 | 27.17965 | 33.79249 | 98 ft | 14 kts | 89° |
| 2026-04-27 11:28 | 27.17886 | 33.79297 | 95 ft | 14 kts | 165° |
| 2026-04-27 11:28 | 27.17796 | 33.79322 | 96 ft | 13 kts | 166° |
| 2026-04-27 11:28 | 27.17705 | 33.79348 | 97 ft | 16 kts | 166° |
| 2026-04-27 11:29 | 27.17589 | 33.79384 | 99 ft | 19 kts | 164° |
| 2026-04-27 11:29 | 27.17453 | 33.79429 | 100 ft | 21 kts | 163° |
| 2026-04-27 11:29 | 27.17306 | 33.79469 | 101 ft | 22 kts | 164° |
| 2026-04-27 11:29 | 27.17253 | 33.79603 | 97 ft | 25 kts | 75° |
| 2026-04-27 11:30 | 27.17307 | 33.79833 | 64 ft | 36 kts | 75° |
| 2026-04-27 11:30 | 27.17366 | 33.80077 | 52 ft | 28 kts | 74° |
| 2026-04-27 11:30 | 27.17417 | 33.80284 | 48 ft | 27 kts | 76° |
| 2026-04-27 11:30 | 27.17465 | 33.80477 | 54 ft | 25 kts | 74° |
| 2026-04-27 11:31 | 27.17545 | 33.80614 | 53 ft | 21 kts | 351° |
| 2026-04-27 11:31 | 27.17675 | 33.80577 | 55 ft | 12 kts | 355° |
| 2026-04-27 11:31 | 27.17696 | 33.80616 | 57 ft | 5 kts | 82° |
| 2026-04-27 11:31 | 27.17705 | 33.80655 | 52 ft | 5 kts | 75° |
| 2026-04-27 11:32 | 27.17709 | 33.80671 | 52 ft | 0 kts | 75° |